• Join FlightAware (Why Join?)
  • Login
  • US Flag 
09:22AM EST


 

Airport Tracker/Info


-or-


 

Live Flight TrackerFlight Track Log ✈ ASQ4921 ✈ 28-Jun-2014 ✈ KBOS - KRIC

Flight Track Log - Related Links

Times and Time Zones

All times are in EDT time to prevent confusion due to time zone crossing. See the ASQ4921 flight status page for this flight to view local times or setup timezone preferences in your user account.

Time Position Orientation Groundspeed Altitude Reporting Facility
EDT Latitude Longitude Course Direction KTS MPH feet Rate Location/Type
04:36PM 42.3667 -70.9667 90° East 162 186 800  Level KA90
04:36PM 42.3667 -70.9500 90° East 149 171 1,400 1,620 Climbing KA90
04:37PM 42.3833 -70.8833 71° East 254 292 3,000 2,400 Climbing KA90
04:38PM 42.3833 -70.7833 90° East 262 302 6,300 2,820 Climbing KA90
04:40PM 42.3161 -70.6972 137° Southeast 282 325 10,100 2,160 Climbing Boston Center
04:41PM 42.2314 -70.6753 169° South 330 380 11,800 2,040 Climbing Boston Center
04:42PM 42.1153 -70.7108 193° South 362 417 14,400 2,340 Climbing Boston Center
04:43PM 42.0153 -70.7422 193° South 368 423 16,700 1,800 Climbing Boston Center
04:44PM 41.9083 -70.7744 193° South 392 451 18,100 1,500 Climbing Boston Center
04:45PM 41.7956 -70.8081 193° South 411 473 19,900 1,800 Climbing Boston Center
04:46PM 41.6881 -70.8689 203° Southwest 425 489 21,900 1,860 Climbing Boston Center
04:47PM 41.5956 -70.9622 217° Southwest 424 488 23,700 1,620 Climbing Boston Center
04:48PM 41.5292 -71.0864 234° Southwest 419 482 25,200 1,560 Climbing Boston Center
04:49PM 41.4419 -71.2422 233° Southwest 429 494 27,000 1,500 Climbing Boston Center
04:50PM 41.3692 -71.3736 234° Southwest 437 503 28,400 1,260 Climbing Boston Center
04:51PM 41.2956 -71.5069 234° Southwest 446 513 29,600 1,380 Climbing Boston Center
04:52PM 41.2217 -71.6406 234° Southwest 447 514 31,300 1,440 Climbing Boston Center
04:53PM 41.1367 -71.7586 226° Southwest 447 514 32,600 1,080 Climbing Boston Center
04:54PM 41.0447 -71.8736 223° Southwest 449 517 33,600 660 Climbing Boston Center
04:55PM 40.9489 -71.9975 224° Southwest 455 524 34,000 180 Climbing Boston Center
04:56PM 40.8536 -72.1181 224° Southwest 470 541 34,000  Level Boston Center
04:57PM 40.7589 -72.2383 224° Southwest 472 543 34,000  Level Boston Center
04:58PM 40.6664 -72.3536 223° Southwest 472 543 34,000  Level Boston Center
04:59PM 40.5533 -72.4967 224° Southwest 472 543 34,000 -240 Level Boston Center
05:00PM 40.4583 -72.6147 223° Southwest 472 543 33,600 -1,560 Descending Boston Center
05:01PM 40.3642 -72.7317 223° Southwest 471 542 30,900 -2,400 Descending Boston Center
05:02PM 40.2719 -72.8450 223° Southwest 459 528 28,800 -1,440 Descending Boston Center
05:03PM 40.1778 -72.9633 224° Southwest 454 522 28,000 -420 Descending Boston Center
05:04PM 40.0847 -73.0753 223° Southwest 454 522 28,000  Level Boston Center
05:05PM 39.9950 -73.1850 223° Southwest 450 518 28,000  Level Boston Center
05:06PM 39.9050 -73.2961 223° Southwest 444 511 28,000  Level Boston Center
05:07PM 39.8008 -73.4228 223° Southwest 444 511 28,000  Level Boston Center
05:08PM 39.7097 -73.5319 223° Southwest 444 511 28,000  Level Boston Center
05:09PM 39.6208 -73.6419 224° Southwest 445 512 28,000  Level Washington Center
05:10PM 39.5289 -73.7503 222° Southwest 445 512 28,000  Level Washington Center
05:11PM 39.4375 -73.8594 223° Southwest 445 512 28,000  Level Washington Center
05:12PM 39.3464 -73.9678 223° Southwest 446 513 28,000  Level Washington Center
05:14PM 39.2547 -74.0769 223° Southwest 446 513 28,000  Level Washington Center
05:15PM 39.1442 -74.2069 222° Southwest 447 514 28,000  Level Washington Center
05:16PM 39.0528 -74.3142 222° Southwest 446 513 28,000  Level Washington Center
05:17PM 38.9603 -74.4217 222° Southwest 446 513 28,000  Level Washington Center
05:18PM 38.8678 -74.5317 223° Southwest 448 516 28,000  Level Washington Center
05:19PM 38.7753 -74.6350 221° Southwest 447 514 28,000  Level Washington Center
05:20PM 38.6747 -74.7322 217° Southwest 449 517 28,000  Level Washington Center
05:21PM 38.5542 -74.8472 217° Southwest 449 517 28,000  Level Washington Center
05:22PM 38.4556 -74.9447 218° Southwest 450 518 28,000  Level Washington Center
05:23PM 38.3561 -75.0394 217° Southwest 451 519 28,000  Level Washington Center
05:24PM 38.2539 -75.1381 217° Southwest 450 518 28,000  Level Washington Center
05:25PM 38.1550 -75.2342 217° Southwest 450 518 28,000  Level Washington Center
05:26PM 38.0550 -75.3306 217° Southwest 450 518 28,000 -660 Level Washington Center
05:27PM 37.9344 -75.4419 216° Southwest 450 518 26,700 -1,680 Descending Washington Center
05:27PM 37.8856 -75.4922 219° Southwest 454 522 25,500 -2,400 Descending Washington Center
05:28PM 37.8356 -75.5400 217° Southwest 450 518 24,200 -2,580 Descending Washington Center
05:29PM 37.7158 -75.6531 217° Southwest 428 493 21,100 -2,460 Descending Washington Center
05:30PM 37.6461 -75.7189 217° Southwest 423 487 19,200 -2,160 Descending Washington Center
05:31PM 37.5561 -75.8031 217° Southwest 409 471 17,000 -2,220 Descending Washington Center
05:32PM 37.5044 -75.9611 248° West 387 445 14,500 -1,860 Descending Washington Center
05:33PM 37.4878 -76.0772 260° West 384 442 13,200 -1,140 Descending Washington Center
05:34PM 37.4686 -76.2100 260° West 381 438 12,300 -780 Descending Washington Center
05:35PM 37.4500 -76.3331 259° West 368 423 11,600 -780 Descending Washington Center
05:36PM 37.4308 -76.4539 259° West 360 414 10,700 -720 Descending Washington Center
05:37PM 37.4111 -76.5875 260° West 326 375 10,100 -780 Descending Washington Center
05:38PM 37.3958 -76.6867 259° West 296 341 9,100 -1,020 Descending Washington Center
05:39PM 37.3811 -76.7861 259° West 294 338 8,000 -1,140 Descending Washington Center
05:40PM 37.4131 -76.8717 295° West 287 330 6,800 -1,200 Descending Washington Center
05:42PM 37.4511 -76.9556 300° West 279 321 5,500 -1,500 Descending Washington Center
05:43PM 37.4972 -77.0558 300° West 277 319 3,700 -1,200 Descending Washington Center
05:44PM 37.5331 -77.1275 302° West 268 308 3,100 -660 Descending Washington Center
05:45PM 37.5667 -77.1919 303° West 232 267 2,400 -480 Descending Washington Center
05:46PM 37.5833 -77.2722 285° West 206 237 2,100 -600 Descending Washington Center
05:47PM 37.5583 -77.3114 231° Southwest 180 207 1,200 -840 Descending Washington Center
05:48PM 37.5228 -77.3236 195° South 150 173 400 -840 Descending Washington Center
05:50PM 37.5052 -77.3197 170° South  Level Estimated
05:57PM 37.5052 -77.3197 North  Level Estimated